createdAt,value
2023-05-11T00:02:00.488Z,53.30
2023-05-11T00:05:02.324Z,53.40
2023-05-11T00:08:04.398Z,53.50
2023-05-11T00:11:09.421Z,53.50
2023-05-11T00:14:10.835Z,53.10
2023-05-11T00:17:12.226Z,53.10
2023-05-11T00:20:13.673Z,53.30
2023-05-11T00:23:15.472Z,53.00
2023-05-11T00:26:16.711Z,53.20
2023-05-11T00:29:19.282Z,53.20
2023-05-11T00:32:22.141Z,52.80
2023-05-11T00:35:23.823Z,53.10
2023-05-11T00:38:26.648Z,53.00
2023-05-11T00:41:28.104Z,52.60
2023-05-11T00:44:29.357Z,52.30
2023-05-11T00:47:31.240Z,52.70
2023-05-11T00:50:32.753Z,52.50
2023-05-11T00:53:35.020Z,52.80
2023-05-11T00:56:36.380Z,52.40
2023-05-11T00:59:37.777Z,52.20
2023-05-11T01:02:40.245Z,52.50
2023-05-11T01:05:47.857Z,52.30
2023-05-11T01:08:56.620Z,52.20
2023-05-11T01:12:07.441Z,52.20
2023-05-11T01:15:11.965Z,52.30
2023-05-11T01:18:20.255Z,52.20
2023-05-11T01:21:22.719Z,52.20
2023-05-11T01:24:36.561Z,52.50
2023-05-11T01:27:53.575Z,52.40
2023-05-11T01:31:01.043Z,52.50
2023-05-11T01:34:08.184Z,52.60
2023-05-11T01:37:14.540Z,52.70
2023-05-11T01:40:21.940Z,52.60
2023-05-11T01:43:27.201Z,53.30
2023-05-11T01:46:33.577Z,52.70
2023-05-11T01:49:38.119Z,52.50
2023-05-11T01:52:40.754Z,52.80
2023-05-11T01:55:42.982Z,53.00
2023-05-11T01:58:45.840Z,53.00
2023-05-11T02:01:48.005Z,53.10
2023-05-11T02:04:50.404Z,53.00
2023-05-11T02:07:54.804Z,53.20
2023-05-11T02:10:57.215Z,53.10
2023-05-11T02:13:59.771Z,53.20
2023-05-11T02:17:03.243Z,53.20
2023-05-11T02:20:06.722Z,52.80
2023-05-11T02:23:09.532Z,53.10
2023-05-11T02:26:15.861Z,53.20
2023-05-11T02:29:17.254Z,53.10
2023-05-11T02:32:22.262Z,53.20
2023-05-11T02:35:27.883Z,53.00
2023-05-11T02:38:35.643Z,52.90
2023-05-11T02:41:42.867Z,53.10
2023-05-11T02:44:56.012Z,53.00
2023-05-11T02:47:59.949Z,53.00
2023-05-11T02:51:07.160Z,53.10
2023-05-11T02:54:16.174Z,53.10
2023-05-11T02:57:22.383Z,53.10
2023-05-11T03:00:24.640Z,53.10
2023-05-11T03:03:27.452Z,53.30
2023-05-11T03:06:32.811Z,53.10
2023-05-11T03:09:35.947Z,53.20
2023-05-11T03:12:37.859Z,53.30
2023-05-11T03:15:40.872Z,53.40
2023-05-11T03:18:43.644Z,53.40
2023-05-11T03:21:46.070Z,53.30
2023-05-11T03:24:48.022Z,53.30
2023-05-11T03:27:52.378Z,53.40
2023-05-11T03:30:54.317Z,53.30
2023-05-11T03:33:57.901Z,53.60
2023-05-11T03:37:01.955Z,53.50
2023-05-11T03:40:05.385Z,53.30
2023-05-11T03:43:17.373Z,53.40
2023-05-11T03:46:23.174Z,53.30
2023-05-11T03:49:26.381Z,53.40
2023-05-11T03:52:29.009Z,53.40
2023-05-11T03:55:31.264Z,53.50
2023-05-11T03:58:33.080Z,53.30
2023-05-11T04:01:34.968Z,53.90
2023-05-11T04:04:37.011Z,53.40
2023-05-11T04:07:39.183Z,53.50
2023-05-11T04:10:40.957Z,53.30
2023-05-11T04:13:42.588Z,53.30
2023-05-11T04:16:44.047Z,53.30
2023-05-11T04:19:45.879Z,53.10
2023-05-11T04:22:47.325Z,53.50
2023-05-11T04:25:52.703Z,53.40
2023-05-11T04:28:54.130Z,53.20
2023-05-11T04:31:55.630Z,53.20
2023-05-11T04:35:01.050Z,53.30
2023-05-11T04:38:06.701Z,52.80
2023-05-11T04:41:08.534Z,52.90
2023-05-11T04:44:11.567Z,53.00
2023-05-11T04:47:14.180Z,52.70
2023-05-11T04:50:16.407Z,52.60
2023-05-11T04:53:18.011Z,52.60
2023-05-11T04:56:21.417Z,52.60
2023-05-11T04:59:24.287Z,52.60
2023-05-11T05:02:25.771Z,52.50
2023-05-11T05:05:27.950Z,52.90
2023-05-11T05:08:29.573Z,52.50
2023-05-11T05:11:31.408Z,52.60
2023-05-11T05:14:32.938Z,52.50
2023-05-11T05:17:34.245Z,52.60
2023-05-11T05:20:36.313Z,52.90
2023-05-11T05:23:37.737Z,52.80
2023-05-11T05:26:39.038Z,52.50
2023-05-11T05:29:40.830Z,52.70
2023-05-11T05:32:43.399Z,52.70
2023-05-11T05:35:46.090Z,52.70
2023-05-11T05:38:48.222Z,53.00
2023-05-11T05:41:50.310Z,52.80
2023-05-11T05:44:54.530Z,52.50
2023-05-11T05:47:59.518Z,52.60
2023-05-11T05:51:02.527Z,52.70
2023-05-11T05:54:04.363Z,52.70
2023-05-11T05:57:06.213Z,52.60
2023-05-11T06:00:09.093Z,52.60
2023-05-11T06:03:14.378Z,52.90
2023-05-11T06:06:16.762Z,52.80
2023-05-11T06:09:18.460Z,52.70
2023-05-11T06:12:20.005Z,52.60
2023-05-11T06:15:23.602Z,52.60
2023-05-11T06:18:35.476Z,52.90
2023-05-11T06:21:42.119Z,52.70
2023-05-11T06:24:44.014Z,52.40
2023-05-11T06:27:46.036Z,53.00
2023-05-11T06:30:48.480Z,53.20
2023-05-11T06:33:51.034Z,53.50
2023-05-11T06:36:59.441Z,53.20
2023-05-11T06:40:01.803Z,53.00
2023-05-11T06:43:03.363Z,52.80
2023-05-11T06:46:17.956Z,53.00
2023-05-11T06:49:19.671Z,52.90
2023-05-11T06:52:21.766Z,53.00
2023-05-11T06:55:23.249Z,52.80
2023-05-11T06:58:24.662Z,53.10
2023-05-11T07:01:27.347Z,53.40
2023-05-11T07:04:29.143Z,53.30
2023-05-11T07:07:31.174Z,53.00
2023-05-11T07:10:32.929Z,53.40
2023-05-11T07:13:34.423Z,53.40
2023-05-11T07:16:37.450Z,52.60
2023-05-11T07:19:38.908Z,52.90
2023-05-11T07:22:41.123Z,53.50
2023-05-11T07:25:42.743Z,53.40
2023-05-11T07:28:44.171Z,53.10
2023-05-11T07:31:48.251Z,52.70
2023-05-11T07:34:49.738Z,51.50
2023-05-11T07:37:51.795Z,53.20
2023-05-11T07:40:53.388Z,51.80
2023-05-11T07:43:54.824Z,51.60
2023-05-11T07:46:57.499Z,51.60
2023-05-11T07:49:59.030Z,51.80
2023-05-11T07:53:00.898Z,51.40
2023-05-11T07:56:03.065Z,51.80
2023-05-11T07:59:04.655Z,51.20
2023-05-11T08:02:07.445Z,51.00
2023-05-11T08:05:09.150Z,50.60
2023-05-11T08:08:11.169Z,50.40
2023-05-11T08:11:12.760Z,50.40
2023-05-11T08:14:14.231Z,50.40
2023-05-11T08:17:15.553Z,49.80
2023-05-11T08:20:17.122Z,50.40
2023-05-11T08:23:19.968Z,50.20
2023-05-11T08:26:21.395Z,50.00
2023-05-11T08:29:23.428Z,49.90
2023-05-11T08:32:26.435Z,49.80
2023-05-11T08:35:27.909Z,49.60
2023-05-11T08:38:31.474Z,49.50
2023-05-11T08:41:34.310Z,49.50
2023-05-11T08:44:38.120Z,49.70
2023-05-11T08:47:39.815Z,49.10
2023-05-11T08:50:41.638Z,48.90
2023-05-11T08:53:46.005Z,48.60
2023-05-11T08:56:50.688Z,48.50
2023-05-11T08:59:53.596Z,48.40
2023-05-11T09:02:57.140Z,48.20
2023-05-11T09:05:59.631Z,47.90
2023-05-11T09:09:01.857Z,47.70
2023-05-11T09:12:04.148Z,47.50
2023-05-11T09:15:06.505Z,47.30
2023-05-11T09:18:08.080Z,47.10
2023-05-11T09:21:09.564Z,47.00
2023-05-11T09:24:12.448Z,46.80
2023-05-11T09:30:23.845Z,47.00
2023-05-11T09:33:25.804Z,46.80
2023-05-11T09:36:27.407Z,46.80
2023-05-11T09:39:38.134Z,46.60
2023-05-11T09:42:42.512Z,46.30
2023-05-11T09:45:45.129Z,46.40
2023-05-11T09:48:59.186Z,45.90
2023-05-11T09:52:00.950Z,46.10
2023-05-11T09:55:09.962Z,46.10
2023-05-11T09:58:11.757Z,45.80
2023-05-11T10:01:14.043Z,45.90
2023-05-11T10:07:26.151Z,45.70
2023-05-11T10:10:31.991Z,45.40
2023-05-11T10:13:35.740Z,45.50
2023-05-11T10:16:38.838Z,45.10
2023-05-11T10:19:40.310Z,45.50
2023-05-11T10:22:42.081Z,45.70
2023-05-11T10:25:44.177Z,45.90
2023-05-11T10:28:45.829Z,45.80
2023-05-11T10:31:48.043Z,45.50
2023-05-11T10:34:49.888Z,45.00
2023-05-11T10:37:51.913Z,45.20
2023-05-11T10:40:59.899Z,45.10
2023-05-11T10:44:31.514Z,45.00
2023-05-11T10:47:54.448Z,44.90
2023-05-11T10:51:07.325Z,44.50
2023-05-11T10:54:27.585Z,44.50
2023-05-11T10:57:48.082Z,44.30
2023-05-11T11:01:18.086Z,44.00
2023-05-11T11:04:19.913Z,44.20
2023-05-11T11:07:21.352Z,44.30
2023-05-11T11:10:29.730Z,44.60
2023-05-11T11:14:00.795Z,44.50
2023-05-11T11:17:24.988Z,45.00
2023-05-11T11:20:51.951Z,45.30
2023-05-11T11:23:53.533Z,45.60
2023-05-11T11:26:54.926Z,45.90
2023-05-11T11:30:06.748Z,46.30
2023-05-11T11:33:20.972Z,46.50
2023-05-11T11:36:50.920Z,46.40
2023-05-11T11:40:08.960Z,46.20
2023-05-11T11:43:18.390Z,46.50
2023-05-11T11:46:29.152Z,46.50
2023-05-11T11:49:31.578Z,47.50
2023-05-11T11:52:34.102Z,46.80
2023-05-11T11:55:47.087Z,46.80
2023-05-11T11:59:03.153Z,46.90
2023-05-11T12:02:06.788Z,46.90
2023-05-11T12:05:12.230Z,46.90
2023-05-11T12:08:16.776Z,46.60
2023-05-11T12:11:18.936Z,46.30
2023-05-11T12:14:21.628Z,46.20
2023-05-11T12:17:28.747Z,45.80
2023-05-11T12:20:30.333Z,45.30
2023-05-11T12:23:31.967Z,45.20
2023-05-11T12:26:35.532Z,45.00
2023-05-11T12:29:37.831Z,44.20
2023-05-11T12:32:41.491Z,44.60
2023-05-11T12:35:45.417Z,43.50
2023-05-11T12:38:48.067Z,43.90
2023-05-11T12:41:53.983Z,44.60
2023-05-11T12:44:58.402Z,43.70
2023-05-11T12:48:00.588Z,44.20
2023-05-11T12:51:02.679Z,43.80
2023-05-11T12:54:04.209Z,43.40
2023-05-11T12:57:08.071Z,43.50
2023-05-11T13:00:12.185Z,43.30
2023-05-11T13:03:20.055Z,43.20
2023-05-11T13:06:21.596Z,43.70
2023-05-11T13:09:23.777Z,42.90
2023-05-11T13:12:26.421Z,43.40
2023-05-11T13:15:28.446Z,42.80
2023-05-11T13:18:30.075Z,42.90
2023-05-11T13:21:32.449Z,42.20
2023-05-11T13:24:34.734Z,42.30
2023-05-11T13:27:37.967Z,42.40
2023-05-11T13:30:40.043Z,41.90
2023-05-11T13:33:41.468Z,41.90
2023-05-11T13:36:42.761Z,41.90
2023-05-11T13:39:44.198Z,41.90
2023-05-11T13:42:46.088Z,42.60
2023-05-11T13:45:47.561Z,42.30
2023-05-11T13:48:48.918Z,42.40
2023-05-11T13:51:51.725Z,42.70
2023-05-11T13:54:53.176Z,42.80
2023-05-11T13:57:55.955Z,42.80
2023-05-11T14:04:05.633Z,43.10
2023-05-11T14:07:07.068Z,43.30
2023-05-11T14:10:10.279Z,43.40
2023-05-11T14:13:12.557Z,43.30
2023-05-11T14:16:14.643Z,43.00
2023-05-11T14:19:16.199Z,43.20
2023-05-11T14:22:17.790Z,43.00
2023-05-11T14:25:19.735Z,43.00
2023-05-11T14:28:23.177Z,43.20
2023-05-11T14:31:25.360Z,43.30
2023-05-11T14:34:26.825Z,43.40
2023-05-11T14:37:28.104Z,43.40
2023-05-11T14:40:30.447Z,43.40
2023-05-11T14:43:32.439Z,44.00
2023-05-11T14:46:33.985Z,43.40
2023-05-11T14:49:35.395Z,43.40
2023-05-11T14:52:36.839Z,43.40
2023-05-11T14:55:38.506Z,43.60
2023-05-11T14:58:41.064Z,43.60
2023-05-11T15:01:42.510Z,43.60
2023-05-11T15:04:43.818Z,43.60
2023-05-11T15:07:45.215Z,43.90
2023-05-11T15:10:47.536Z,43.60
2023-05-11T15:13:49.490Z,43.60
2023-05-11T15:16:52.949Z,43.60
2023-05-11T15:19:54.503Z,43.50
2023-05-11T15:22:56.147Z,43.00
2023-05-11T15:25:57.915Z,43.10
2023-05-11T15:29:00.005Z,42.80
2023-05-11T15:32:01.660Z,42.70
2023-05-11T15:35:05.925Z,42.70
2023-05-11T15:38:07.365Z,42.60
2023-05-11T15:41:08.885Z,42.70
2023-05-11T15:44:10.851Z,42.90
2023-05-11T15:47:12.406Z,43.10
2023-05-11T15:50:14.000Z,42.80
2023-05-11T15:53:15.718Z,42.60
2023-05-11T15:56:17.143Z,42.50
2023-05-11T15:59:19.119Z,42.30
2023-05-11T16:02:23.133Z,42.40
2023-05-11T16:05:27.846Z,42.30
2023-05-11T16:08:29.285Z,42.10
2023-05-11T16:11:30.896Z,42.10
2023-05-11T16:14:34.355Z,41.50
2023-05-11T16:17:35.850Z,42.10
2023-05-11T16:20:37.649Z,41.70
2023-05-11T16:23:39.298Z,41.60
2023-05-11T16:26:40.765Z,41.60
2023-05-11T16:29:42.812Z,41.40
2023-05-11T16:32:44.191Z,41.40
2023-05-11T16:35:45.835Z,41.20
2023-05-11T16:38:47.116Z,41.50
2023-05-11T16:41:48.533Z,41.50
2023-05-11T16:44:50.372Z,41.50
2023-05-11T16:47:52.094Z,41.50
2023-05-11T16:50:54.739Z,41.40
2023-05-11T16:53:56.522Z,41.50
2023-05-11T16:56:57.953Z,41.40
2023-05-11T16:59:59.905Z,41.40
2023-05-11T17:03:01.763Z,41.50
2023-05-11T17:06:03.626Z,41.90
2023-05-11T17:09:07.494Z,41.80
2023-05-11T17:12:09.882Z,41.30
2023-05-11T17:15:11.958Z,41.20
2023-05-11T17:18:13.595Z,41.00
2023-05-11T17:21:16.052Z,41.00
2023-05-11T17:24:17.665Z,41.00
2023-05-11T17:27:19.080Z,40.90
2023-05-11T17:30:22.358Z,40.80
2023-05-11T17:33:26.928Z,40.90
2023-05-11T17:36:30.197Z,40.90
2023-05-11T17:39:31.766Z,40.80
2023-05-11T17:42:34.043Z,40.60
2023-05-11T17:45:39.040Z,40.50
2023-05-11T17:48:41.876Z,40.50
2023-05-11T17:51:43.233Z,40.20
2023-05-11T17:54:44.655Z,40.30
2023-05-11T17:57:46.387Z,40.60
2023-05-11T18:00:49.241Z,40.60
2023-05-11T18:03:52.843Z,40.00
2023-05-11T18:06:54.885Z,39.70
2023-05-11T18:09:57.189Z,39.60
2023-05-11T18:13:01.870Z,39.30
2023-05-11T18:16:06.629Z,39.30
2023-05-11T18:19:08.534Z,39.00
2023-05-11T18:22:10.056Z,38.90
2023-05-11T18:25:13.036Z,38.90
2023-05-11T18:28:14.457Z,38.80
2023-05-11T18:31:19.451Z,38.60
2023-05-11T18:34:20.875Z,38.40
2023-05-11T18:37:22.336Z,38.40
2023-05-11T18:40:23.752Z,38.60
2023-05-11T18:43:25.009Z,38.50
2023-05-11T18:46:27.090Z,38.40
2023-05-11T18:49:28.628Z,38.40
2023-05-11T18:52:29.990Z,38.20
2023-05-11T18:55:38.157Z,38.10
2023-05-11T18:58:47.173Z,38.20
2023-05-11T19:01:49.442Z,38.00
2023-05-11T19:04:50.958Z,38.00
2023-05-11T19:07:52.298Z,38.10
2023-05-11T19:10:53.923Z,38.00
2023-05-11T19:13:55.432Z,38.40
2023-05-11T19:16:57.577Z,38.30
2023-05-11T19:20:01.755Z,38.40
2023-05-11T19:23:03.662Z,38.40
2023-05-11T19:26:05.217Z,38.40
2023-05-11T19:29:08.362Z,38.50
2023-05-11T19:32:10.440Z,38.40
2023-05-11T19:35:13.795Z,38.50
2023-05-11T19:38:15.584Z,38.60
2023-05-11T19:41:17.428Z,38.70
2023-05-11T19:44:21.050Z,38.80
2023-05-11T19:47:23.110Z,39.00
2023-05-11T19:50:27.560Z,39.00
2023-05-11T19:53:29.022Z,39.20
2023-05-11T19:56:32.337Z,39.50
2023-05-11T19:59:33.915Z,39.70
2023-05-11T20:02:36.240Z,39.90
2023-05-11T20:05:37.963Z,40.20
2023-05-11T20:08:40.801Z,40.30
2023-05-11T20:11:43.808Z,40.50
2023-05-11T20:14:45.223Z,40.70
2023-05-11T20:17:47.417Z,40.90
2023-05-11T20:20:49.292Z,40.70
2023-05-11T20:23:50.698Z,41.00
2023-05-11T20:26:52.233Z,41.20
2023-05-11T20:29:54.352Z,41.30
2023-05-11T20:36:03.142Z,41.70
2023-05-11T20:39:05.060Z,41.80
2023-05-11T20:42:06.859Z,41.90
2023-05-11T20:45:09.346Z,42.40
2023-05-11T20:48:11.473Z,42.40
2023-05-11T20:51:14.335Z,42.40
2023-05-11T20:54:16.103Z,42.50
2023-05-11T20:57:20.799Z,42.40
2023-05-11T21:00:25.683Z,42.50
2023-05-11T21:03:27.789Z,42.90
2023-05-11T21:06:29.315Z,42.80
2023-05-11T21:09:30.914Z,43.10
2023-05-11T21:12:33.329Z,43.20
2023-05-11T21:15:34.860Z,43.30
2023-05-11T21:18:36.925Z,43.40
2023-05-11T21:21:38.375Z,43.60
2023-05-11T21:24:40.367Z,43.60
2023-05-11T21:27:42.077Z,43.70
2023-05-11T21:30:43.623Z,43.90
2023-05-11T21:33:45.626Z,43.60
2023-05-11T21:36:47.007Z,43.80
2023-05-11T21:39:49.465Z,43.80
2023-05-11T21:42:50.857Z,44.20
2023-05-11T21:45:52.192Z,44.00
2023-05-11T21:48:54.177Z,44.10
2023-05-11T21:51:57.866Z,44.10
2023-05-11T21:54:59.288Z,44.20
2023-05-11T21:58:01.057Z,44.30
2023-05-11T22:01:02.569Z,44.30
2023-05-11T22:04:04.579Z,44.30
2023-05-11T22:07:08.091Z,44.40
2023-05-11T22:10:10.699Z,44.50
2023-05-11T22:13:12.116Z,44.40
2023-05-11T22:16:13.527Z,44.80
2023-05-11T22:19:18.634Z,44.70
2023-05-11T22:22:20.034Z,44.90
2023-05-11T22:25:21.313Z,44.70
2023-05-11T22:28:22.888Z,45.20
2023-05-11T22:31:25.914Z,44.80
2023-05-11T22:34:27.879Z,45.10
2023-05-11T22:37:30.987Z,45.40
2023-05-11T22:40:32.427Z,45.30
2023-05-11T22:43:33.691Z,45.30
2023-05-11T22:46:37.451Z,45.60
2023-05-11T22:49:39.468Z,45.50
2023-05-11T22:52:40.962Z,45.90
2023-05-11T22:55:42.181Z,45.60
2023-05-11T22:58:45.215Z,46.00
2023-05-11T23:01:46.669Z,45.60
2023-05-11T23:04:52.489Z,45.90
2023-05-11T23:07:55.139Z,45.90
2023-05-11T23:10:56.870Z,46.00
2023-05-11T23:13:59.036Z,46.20
2023-05-11T23:17:00.428Z,46.00
2023-05-11T23:20:03.227Z,46.30
2023-05-11T23:23:04.688Z,46.50
2023-05-11T23:26:05.948Z,46.20
2023-05-11T23:29:07.822Z,46.50
2023-05-11T23:32:09.408Z,46.50
2023-05-11T23:35:11.389Z,46.60
2023-05-11T23:38:15.980Z,46.60
2023-05-11T23:41:18.219Z,46.80
2023-05-11T23:44:19.745Z,46.80
2023-05-11T23:47:21.213Z,46.70
2023-05-11T23:50:23.237Z,46.70
2023-05-11T23:53:24.696Z,46.90
2023-05-11T23:56:25.918Z,46.90
2023-05-11T23:59:27.510Z,47.10
